Time;durP1;ratioP1;P1;durP2;ratioP2;P2;SDS_P1;SDS_P2;PMS_P1;PMS_P2;Temp;Humidity;BMP_temperature;BMP_pressure;BME280_temperature;BME280_humidity;BME280_pressure;Samples;Min_cycle;Max_cycle;Signal;HPM_P1;HPM_P2
2021/01/20 00:02:05;;;;;;;13.27;6.32;;;6.70;99.90;;;;;;4739658;30;20043;-80
2021/01/20 00:04:31;;;;;;;11.13;6.63;;;6.70;99.90;;;;;;4730551;30;20040;-80
2021/01/20 00:06:57;;;;;;;13.65;7.90;;;6.70;99.90;;;;;;4730639;30;20064;-80
2021/01/20 00:09:23;;;;;;;14.32;6.78;;;6.70;99.90;;;;;;4720751;30;20052;-80
2021/01/20 00:11:49;;;;;;;11.70;6.85;;;6.60;99.90;;;;;;4729171;30;20570;-80
2021/01/20 00:14:18;;;;;;;10.82;6.75;;;6.60;99.90;;;;;;4731279;30;20119;-80
2021/01/20 00:19:31;;;;;;;10.10;7.13;;;6.60;99.90;;;;;;4724975;30;20322;-80
2021/01/20 00:21:57;;;;;;;13.05;6.55;;;6.60;99.90;;;;;;4730827;30;20032;-79
2021/01/20 00:24:23;;;;;;;13.85;7.32;;;6.70;99.90;;;;;;4715583;30;20048;-80
2021/01/20 00:26:49;;;;;;;11.65;6.35;;;6.70;99.90;;;;;;4731336;30;20497;-79
2021/01/20 00:29:16;;;;;;;13.52;6.40;;;6.70;99.90;;;;;;4729607;30;20491;-80
2021/01/20 00:31:42;;;;;;;12.95;6.85;;;6.70;99.90;;;;;;4715777;30;20036;-80
2021/01/20 00:34:08;;;;;;;12.70;7.13;;;6.70;99.90;;;;;;4730003;30;20036;-80
2021/01/20 00:36:34;;;;;;;13.18;7.43;;;6.80;99.90;;;;;;4730057;30;20040;-80
2021/01/20 00:39:01;;;;;;;17.95;8.65;;;6.80;99.90;;;;;;4730897;30;20562;-80
2021/01/20 00:41:27;;;;;;;15.27;7.47;;;6.80;99.90;;;;;;4730265;30;20117;-80
2021/01/20 00:43:53;;;;;;;14.77;7.45;;;6.70;99.90;;;;;;4715424;30;20037;-80
2021/01/20 00:46:19;;;;;;;10.88;7.05;;;6.70;99.90;;;;;;4716875;30;20029;-80
2021/01/20 00:48:46;;;;;;;14.75;7.63;;;6.70;99.90;;;;;;4730457;30;20052;-80
2021/01/20 00:51:13;;;;;;;15.93;7.63;;;6.70;99.90;;;;;;4729899;30;20165;-80
2021/01/20 00:53:39;;;;;;;12.75;7.30;;;6.60;99.90;;;;;;4717153;30;20036;-80
2021/01/20 00:56:06;;;;;;;17.20;7.80;;;6.60;99.90;;;;;;4730148;30;20406;-80
2021/01/20 00:58:33;;;;;;;12.38;6.57;;;6.70;99.90;;;;;;4729301;30;20032;-80
2021/01/20 01:00:59;;;;;;;13.57;7.70;;;6.60;99.90;;;;;;4717509;30;20073;-80
2021/01/20 01:03:25;;;;;;;12.13;7.05;;;6.60;99.90;;;;;;4722101;30;20109;-80
2021/01/20 01:05:51;;;;;;;12.18;6.85;;;6.60;99.90;;;;;;4718370;30;20383;-80
2021/01/20 01:08:18;;;;;;;12.30;6.93;;;6.60;99.90;;;;;;4715008;30;20057;-80
2021/01/20 01:10:46;;;;;;;13.60;7.38;;;6.60;99.90;;;;;;4729100;30;20131;-80
2021/01/20 01:13:27;;;;;;;13.13;7.80;;;6.60;99.90;;;;;;4733531;30;20036;-80
2021/01/20 01:16:20;;;;;;;13.35;6.80;;;6.60;99.90;;;;;;4728773;30;20115;-80
2021/01/20 01:18:46;;;;;;;11.57;7.10;;;6.50;99.90;;;;;;4729985;30;20029;-80
2021/01/20 01:21:12;;;;;;;12.00;6.30;;;6.50;99.90;;;;;;4718640;30;20547;-80
2021/01/20 01:23:39;;;;;;;11.82;6.45;;;6.60;99.90;;;;;;4729335;30;20036;-80
2021/01/20 01:26:05;;;;;;;15.93;6.82;;;6.60;99.90;;;;;;4731375;30;20051;-80
2021/01/20 01:28:32;;;;;;;10.10;6.30;;;6.60;99.90;;;;;;4730839;30;20033;-80
2021/01/20 01:31:20;;;;;;;10.75;6.00;;;6.60;99.90;;;;;;4730429;30;20515;-80
2021/01/20 01:33:47;;;;;;;11.48;6.18;;;6.70;99.90;;;;;;4716133;30;20389;-79
2021/01/20 01:36:13;;;;;;;12.50;6.53;;;6.70;99.90;;;;;;4715197;30;20044;-80
2021/01/20 01:38:40;;;;;;;8.07;5.65;;;6.60;99.90;;;;;;4730084;30;20132;-80
2021/01/20 01:41:10;;;;;;;10.93;6.22;;;6.70;99.90;;;;;;4732620;30;20040;-80
2021/01/20 01:43:50;;;;;;;10.68;5.57;;;6.70;99.90;;;;;;4732631;30;20037;-80
2021/01/20 01:46:39;;;;;;;14.18;6.18;;;6.60;99.90;;;;;;4732938;30;20461;-80
2021/01/20 01:49:15;;;;;;;9.57;6.28;;;6.70;99.90;;;;;;4719413;30;20527;-80
2021/01/20 01:51:41;;;;;;;11.02;6.55;;;6.70;99.90;;;;;;4717487;30;20104;-80
2021/01/20 01:54:40;;;;;;;12.27;6.15;;;6.70;99.90;;;;;;4730984;30;20104;-80
2021/01/20 01:57:22;;;;;;;10.55;5.80;;;6.70;99.90;;;;;;4740310;30;20047;-80
2021/01/20 01:59:50;;;;;;;11.13;5.40;;;6.70;99.90;;;;;;4735994;30;20057;-80
2021/01/20 02:02:55;;;;;;;8.82;5.30;;;6.70;99.90;;;;;;4723391;30;20529;-80
2021/01/20 02:05:26;;;;;;;9.23;5.97;;;6.70;99.90;;;;;;4732448;30;20128;-80
2021/01/20 02:07:53;;;;;;;9.88;5.85;;;6.70;99.90;;;;;;4732352;30;20075;-79
2021/01/20 02:10:26;;;;;;;10.82;5.80;;;6.70;99.90;;;;;;4718756;30;20136;-80
2021/01/20 02:13:28;;;;;;;9.60;5.70;;;6.70;99.90;;;;;;4732902;30;20112;-80
2021/01/20 02:16:37;;;;;;;10.90;6.32;;;6.70;99.90;;;;;;4728539;30;20035;-80
2021/01/20 02:19:19;;;;;;;10.80;5.57;;;6.70;99.90;;;;;;4732394;30;20098;-80
2021/01/20 02:22:15;;;;;;;10.10;5.70;;;6.70;99.90;;;;;;4717775;30;20049;-80
2021/01/20 02:25:16;;;;;;;10.77;5.85;;;6.70;99.90;;;;;;4722401;30;20040;-80
2021/01/20 02:28:18;;;;;;;11.82;5.43;;;6.70;99.90;;;;;;4742231;30;20145;-80
2021/01/20 02:31:05;;;;;;;11.55;5.30;;;6.70;99.90;;;;;;4731515;30;20103;-80
2021/01/20 02:33:37;;;;;;;9.13;5.50;;;6.70;99.90;;;;;;4716117;30;20033;-80
2021/01/20 02:36:16;;;;;;;8.38;5.50;;;6.70;99.90;;;;;;4734240;30;20028;-81
2021/01/20 02:38:56;;;;;;;10.30;5.45;;;6.70;99.90;;;;;;4747949;30;20402;-80
2021/01/20 02:41:30;;;;;;;9.88;5.30;;;6.70;99.90;;;;;;4748030;30;20040;-81
2021/01/20 02:44:08;;;;;;;9.20;5.50;;;6.70;99.90;;;;;;4730628;30;20128;-81
2021/01/20 02:46:49;;;;;;;12.50;6.82;;;6.70;99.90;;;;;;4728157;30;20044;-81
2021/01/20 02:49:33;;;;;;;9.35;5.38;;;6.60;99.90;;;;;;4736889;30;20079;-81
2021/01/20 02:52:07;;;;;;;9.85;5.95;;;6.60;99.90;;;;;;4749602;30;20063;-80
2021/01/20 02:54:55;;;;;;;10.98;6.20;;;6.60;99.90;;;;;;4718401;30;20063;-81
2021/01/20 02:57:41;;;;;;;12.85;5.38;;;6.60;99.90;;;;;;4740833;30;20575;-81
2021/01/20 03:00:15;;;;;;;13.40;5.97;;;6.60;99.90;;;;;;4735461;30;20109;-81
2021/01/20 03:02:48;;;;;;;12.90;6.13;;;6.60;99.90;;;;;;4747386;30;20024;-81
2021/01/20 03:05:17;;;;;;;9.73;5.85;;;6.60;99.90;;;;;;4731719;30;20056;-81
2021/01/20 03:07:43;;;;;;;11.45;5.90;;;6.60;99.90;;;;;;4729334;30;20061;-81
2021/01/20 03:10:11;;;;;;;10.30;5.80;;;6.60;99.90;;;;;;4715476;30;20053;-80
2021/01/20 03:12:37;;;;;;;13.13;6.25;;;6.50;99.90;;;;;;4714505;30;20150;-81
2021/01/20 03:15:10;;;;;;;11.23;6.20;;;6.50;99.90;;;;;;4739960;30;20498;-80
2021/01/20 03:17:36;;;;;;;14.32;6.68;;;6.50;99.90;;;;;;4732835;30;20427;-81
2021/01/20 03:20:02;;;;;;;10.88;6.25;;;6.50;99.90;;;;;;4731844;30;20049;-81
2021/01/20 03:22:28;;;;;;;13.07;7.15;;;6.50;99.90;;;;;;4732781;30;20482;-80
2021/01/20 03:24:54;;;;;;;13.02;6.78;;;6.40;99.90;;;;;;4741065;30;20120;-81
2021/01/20 03:27:20;;;;;;;9.23;5.88;;;6.40;99.90;;;;;;4736947;30;20033;-81
2021/01/20 03:29:46;;;;;;;11.95;7.35;;;6.40;99.90;;;;;;4732574;30;20836;-81
2021/01/20 03:32:12;;;;;;;13.73;6.70;;;6.40;99.90;;;;;;4732682;30;20069;-81
2021/01/20 03:34:39;;;;;;;11.68;6.60;;;6.40;99.90;;;;;;4734074;30;20456;-80
2021/01/20 03:37:05;;;;;;;9.57;5.80;;;6.50;99.90;;;;;;4750271;30;20055;-80
2021/01/20 03:39:31;;;;;;;9.75;5.97;;;6.50;99.90;;;;;;4748853;30;20028;-80
2021/01/20 03:41:57;;;;;;;10.27;6.10;;;6.50;99.90;;;;;;4749026;30;20045;-81
2021/01/20 03:44:24;;;;;;;9.73;5.80;;;6.50;99.90;;;;;;4738711;30;20048;-80
2021/01/20 03:46:52;;;;;;;11.05;5.80;;;6.50;99.90;;;;;;4749810;30;20036;-80
2021/01/20 03:49:18;;;;;;;10.75;5.20;;;6.50;99.90;;;;;;4749703;30;20032;-80
2021/01/20 03:51:47;;;;;;;12.77;6.07;;;6.40;99.90;;;;;;4748823;30;20051;-81
2021/01/20 03:54:14;;;;;;;10.63;6.20;;;6.50;99.90;;;;;;4742546;30;20431;-81
2021/01/20 03:56:40;;;;;;;9.32;5.90;;;6.40;99.90;;;;;;4744587;30;20040;-80
2021/01/20 03:59:07;;;;;;;11.88;6.57;;;6.40;99.90;;;;;;4748897;30;20159;-81
2021/01/20 04:01:33;;;;;;;10.68;6.60;;;6.40;99.90;;;;;;4749710;30;20127;-81
2021/01/20 04:03:59;;;;;;;11.20;6.43;;;6.40;99.90;;;;;;4746452;30;20040;-81
2021/01/20 04:06:31;;;;;;;11.63;6.60;;;6.40;99.90;;;;;;4740709;30;20032;-81
2021/01/20 04:08:58;;;;;;;14.30;7.50;;;6.30;99.90;;;;;;4748461;30;20043;-81
2021/01/20 04:11:24;;;;;;;11.90;7.88;;;6.30;99.90;;;;;;4748353;30;20150;-81
2021/01/20 04:13:50;;;;;;;14.52;8.65;;;6.30;99.90;;;;;;4748293;30;20039;-81
2021/01/20 04:16:16;;;;;;;13.70;6.97;;;6.20;99.90;;;;;;4738030;30;20398;-80
2021/01/20 04:18:43;;;;;;;18.27;7.70;;;6.20;99.90;;;;;;4748303;30;20552;-80
2021/01/20 04:21:09;;;;;;;13.23;7.68;;;6.20;99.90;;;;;;4733578;30;20471;-80
2021/01/20 04:23:37;;;;;;;13.82;7.95;;;6.20;99.90;;;;;;4748252;30;20406;-80
2021/01/20 04:26:07;;;;;;;13.88;8.00;;;6.20;99.90;;;;;;4735349;30;20047;-81
2021/01/20 04:28:34;;;;;;;13.60;7.50;;;6.20;99.90;;;;;;4749463;30;20056;-81
2021/01/20 04:31:01;;;;;;;12.95;7.68;;;6.20;99.90;;;;;;4749356;30;20044;-80
2021/01/20 04:33:28;;;;;;;14.80;7.97;;;6.20;99.90;;;;;;4733452;30;20044;-81
2021/01/20 04:35:54;;;;;;;14.52;7.97;;;6.20;99.90;;;;;;4737686;30;20102;-81
2021/01/20 04:38:21;;;;;;;13.80;7.88;;;6.10;99.90;;;;;;4710824;30;20059;-80
2021/01/20 04:40:49;;;;;;;14.70;8.00;;;6.10;99.90;;;;;;4715885;30;20059;-81
2021/01/20 04:43:15;;;;;;;13.98;8.18;;;6.10;99.90;;;;;;4731606;30;20041;-81
2021/01/20 04:45:41;;;;;;;15.40;9.48;;;6.10;99.90;;;;;;4731164;30;20414;-80
2021/01/20 04:48:08;;;;;;;17.40;9.88;;;6.10;99.90;;;;;;4741663;30;20060;-80
2021/01/20 04:50:36;;;;;;;17.88;9.98;;;6.10;99.90;;;;;;4748021;30;20044;-80
2021/01/20 04:53:09;;;;;;;15.48;8.90;;;6.10;99.90;;;;;;4749071;30;20028;-81
2021/01/20 04:55:41;;;;;;;13.57;8.43;;;6.00;99.90;;;;;;4746102;30;20036;-80
2021/01/20 04:58:10;;;;;;;15.80;8.43;;;6.00;99.90;;;;;;4711355;30;20483;-81
2021/01/20 05:00:41;;;;;;;14.60;7.95;;;6.00;99.90;;;;;;4720432;30;20434;-80
2021/01/20 05:03:08;;;;;;;18.38;10.02;;;6.10;99.90;;;;;;4721129;30;20093;-80
2021/01/20 05:05:35;;;;;;;14.82;9.07;;;6.10;99.90;;;;;;4712687;30;20044;-80
2021/01/20 05:08:05;;;;;;;15.00;9.05;;;6.10;99.90;;;;;;4721868;30;20063;-80
2021/01/20 05:10:32;;;;;;;14.68;8.13;;;6.10;99.90;;;;;;4730069;30;20048;-80
2021/01/20 05:12:58;;;;;;;16.80;8.80;;;6.10;99.90;;;;;;4730003;30;20764;-80
2021/01/20 05:15:31;;;;;;;16.33;9.45;;;6.10;99.90;;;;;;4733265;30;20112;-80
2021/01/20 05:18:03;;;;;;;17.40;9.02;;;6.10;99.90;;;;;;4722495;30;20028;-80
2021/01/20 05:20:32;;;;;;;19.35;8.65;;;6.00;99.90;;;;;;4752392;30;20039;-80
2021/01/20 05:23:04;;;;;;;16.73;8.38;;;6.10;99.90;;;;;;4752298;30;20517;-80
2021/01/20 05:25:33;;;;;;;11.80;7.18;;;6.10;99.90;;;;;;4731646;30;20036;-80
2021/01/20 05:28:19;;;;;;;15.65;7.60;;;6.10;99.90;;;;;;4735415;30;20506;-80
2021/01/20 05:30:56;;;;;;;11.38;6.53;;;6.10;99.90;;;;;;4750905;30;20052;-80
2021/01/20 05:33:24;;;;;;;11.77;6.25;;;6.10;99.90;;;;;;4736461;30;20043;-80
2021/01/20 05:36:22;;;;;;;12.55;7.40;;;6.10;99.90;;;;;;4724731;30;20029;-80
2021/01/20 05:38:50;;;;;;;14.15;6.50;;;6.10;99.90;;;;;;4702760;30;20071;-80
2021/01/20 05:41:28;;;;;;;12.52;7.10;;;6.10;99.90;;;;;;4740845;30;20028;-80
2021/01/20 05:44:15;;;;;;;9.20;7.03;;;6.20;99.90;;;;;;4750391;30;20058;-81
2021/01/20 05:46:43;;;;;;;14.13;7.75;;;6.20;99.90;;;;;;4729014;30;20062;-81
2021/01/20 05:49:27;;;;;;;11.70;7.68;;;6.20;99.90;;;;;;4737390;30;20503;-80
2021/01/20 05:51:54;;;;;;;16.13;8.07;;;6.20;99.90;;;;;;4751947;30;20106;-80
2021/01/20 05:54:37;;;;;;;12.18;7.68;;;6.20;99.90;;;;;;4749659;30;20040;-80
2021/01/20 05:57:19;;;;;;;11.02;7.00;;;6.20;99.90;;;;;;4704310;30;20037;-80
2021/01/20 05:59:50;;;;;;;13.55;7.53;;;6.30;99.90;;;;;;4718056;30;20032;-80
2021/01/20 06:02:18;;;;;;;11.43;7.15;;;6.20;99.90;;;;;;4706802;30;20029;-80
2021/01/20 06:04:45;;;;;;;11.73;7.15;;;6.20;99.90;;;;;;4728197;30;20404;-80
2021/01/20 06:07:14;;;;;;;10.40;6.28;;;6.20;99.90;;;;;;4723931;30;20049;-80
2021/01/20 06:09:44;;;;;;;10.07;6.07;;;6.20;99.90;;;;;;4737121;30;20392;-80
2021/01/20 06:12:12;;;;;;;12.38;6.90;;;6.20;99.90;;;;;;4723377;30;20025;-80
2021/01/20 06:14:39;;;;;;;8.90;5.68;;;6.30;99.90;;;;;;4700785;30;20044;-81
2021/01/20 06:17:33;;;;;;;8.55;6.07;;;6.30;99.90;;;;;;4729847;30;20113;-80
2021/01/20 06:20:03;;;;;;;13.38;6.63;;;6.30;99.90;;;;;;4729969;30;20032;-80
2021/01/20 06:22:31;;;;;;;7.75;5.22;;;6.30;99.90;;;;;;4750056;30;20094;-80
2021/01/20 06:25:06;;;;;;;10.15;5.65;;;6.40;99.90;;;;;;4750983;30;20036;-80
2021/01/20 06:28:02;;;;;;;9.23;5.22;;;6.40;99.90;;;;;;4735282;30;20043;-81
2021/01/20 06:30:45;;;;;;;7.97;4.63;;;6.50;99.90;;;;;;4735497;30;20044;-80
2021/01/20 06:33:15;;;;;;;8.77;4.32;;;6.60;99.90;;;;;;4751379;30;20394;-81
2021/01/20 06:35:47;;;;;;;7.28;4.10;;;6.70;99.90;;;;;;4741955;30;20041;-81
2021/01/20 06:38:40;;;;;;;7.38;3.90;;;6.70;99.90;;;;;;4733465;30;20521;-80
2021/01/20 06:41:10;;;;;;;5.78;3.50;;;6.80;99.90;;;;;;4731612;30;20048;-81
2021/01/20 06:43:41;;;;;;;6.43;3.42;;;6.80;99.90;;;;;;4749733;30;20191;-80
2021/01/20 06:46:25;;;;;;;7.88;3.78;;;6.90;99.90;;;;;;4742265;30;20124;-80
2021/01/20 06:48:54;;;;;;;;;;;7.00;99.90;;;;;;4732248;30;20032;-80
2021/01/20 06:51:27;;;;;;;7.38;3.65;;;7.00;99.90;;;;;;4732000;30;19914;-80
2021/01/20 06:54:02;;;;;;;7.32;3.25;;;7.00;99.90;;;;;;4736720;30;20041;-80
2021/01/20 06:56:33;;;;;;;5.47;3.30;;;7.10;99.90;;;;;;4731862;30;20507;-80
2021/01/20 06:59:19;;;;;;;6.13;2.92;;;7.20;99.90;;;;;;4731775;30;20058;-80
2021/01/20 07:02:03;;;;;;;4.55;2.60;;;7.30;99.90;;;;;;4732269;30;20036;-80
2021/01/20 07:04:39;;;;;;;4.13;2.45;;;7.30;99.90;;;;;;4749329;30;20473;-80
2021/01/20 07:07:12;;;;;;;6.68;3.60;;;7.40;99.90;;;;;;4741698;30;20399;-81
2021/01/20 07:09:51;;;;;;;4.82;2.95;;;7.40;99.90;;;;;;4731715;30;20048;-80
2021/01/20 07:12:18;;;;;;;4.88;2.63;;;7.50;99.90;;;;;;4721377;30;20274;-80
2021/01/20 07:14:45;;;;;;;5.40;2.83;;;7.50;99.90;;;;;;4716894;30;20040;-80
2021/01/20 07:17:12;;;;;;;3.85;2.80;;;7.60;99.90;;;;;;4727860;30;20041;-80
2021/01/20 07:19:40;;;;;;;5.03;2.75;;;7.60;99.90;;;;;;4728782;30;20036;-80
2021/01/20 07:22:06;;;;;;;4.63;2.45;;;7.60;99.90;;;;;;4733596;30;20167;-80
2021/01/20 07:24:33;;;;;;;6.35;2.40;;;7.70;99.90;;;;;;4742992;30;20129;-81
2021/01/20 07:27:06;;;;;;;4.90;3.05;;;7.70;99.90;;;;;;4716444;30;20044;-80
2021/01/20 07:29:32;;;;;;;;;;;7.80;99.90;;;;;;4731550;30;20036;-81
2021/01/20 07:32:00;;;;;;;9.25;2.83;;;7.80;99.90;;;;;;4729255;30;19914;-80
2021/01/20 07:34:40;;;;;;;4.05;2.97;;;7.90;99.90;;;;;;4723215;30;20496;-80
2021/01/20 07:37:11;;;;;;;5.97;3.10;;;7.90;99.90;;;;;;4716480;30;20098;-79
2021/01/20 07:39:37;;;;;;;6.88;3.33;;;7.90;99.90;;;;;;4728253;30;20041;-80
2021/01/20 07:42:05;;;;;;;6.95;2.80;;;7.90;99.90;;;;;;4732149;30;20048;-80
2021/01/20 07:44:33;;;;;;;6.88;2.80;;;7.90;99.90;;;;;;4732842;30;20032;-80
2021/01/20 07:47:09;;;;;;;5.53;2.15;;;8.00;99.90;;;;;;4733783;30;20029;-80
2021/01/20 07:49:37;;;;;;;3.80;1.77;;;8.00;99.90;;;;;;4730610;30;20043;-80
2021/01/20 07:52:10;;;;;;;2.63;1.58;;;8.20;99.90;;;;;;4731932;30;20048;-80
2021/01/20 07:54:40;;;;;;;2.83;1.98;;;8.20;99.90;;;;;;4732034;30;20036;-80
2021/01/20 07:57:07;;;;;;;2.63;1.65;;;8.30;99.90;;;;;;4731752;30;20033;-80
2021/01/20 07:59:34;;;;;;;4.35;2.10;;;8.40;99.90;;;;;;4732005;30;20115;-83
2021/01/20 08:02:11;;;;;;;4.03;2.33;;;8.50;99.90;;;;;;4732077;30;20047;-79
2021/01/20 08:04:38;;;;;;;3.42;1.95;;;8.60;99.90;;;;;;4742857;30;20033;-77
2021/01/20 08:07:05;;;;;;;2.55;2.13;;;8.70;99.90;;;;;;4739105;30;20544;-78
2021/01/20 08:09:45;;;;;;;3.60;1.90;;;8.80;99.90;;;;;;4730322;30;20076;-79
2021/01/20 08:12:22;;;;;;;3.42;2.15;;;8.90;99.90;;;;;;4730919;30;20044;-78
2021/01/20 08:14:49;;;;;;;3.95;2.03;;;9.00;99.90;;;;;;4741905;30;20029;-78
2021/01/20 08:17:17;;;;;;;3.47;2.33;;;9.20;99.90;;;;;;4734165;30;20036;-79
2021/01/20 08:19:44;;;;;;;4.25;2.42;;;9.30;99.90;;;;;;4731823;30;20123;-78
2021/01/20 08:22:13;;;;;;;3.47;1.95;;;9.40;99.90;;;;;;4730674;30;20025;-79
2021/01/20 08:24:45;;;;;;;4.82;2.22;;;9.50;99.90;;;;;;4736734;30;20044;-79
2021/01/20 08:27:12;;;;;;;2.38;1.75;;;9.60;99.90;;;;;;4737517;30;20112;-79
2021/01/20 08:29:52;;;;;;;4.35;1.80;;;9.60;99.90;;;;;;4730300;30;20128;-79
2021/01/20 08:32:19;;;;;;;1.98;1.60;;;9.80;99.90;;;;;;4731703;30;20550;-79
2021/01/20 08:34:47;;;;;;;4.18;1.50;;;9.80;99.90;;;;;;4736238;30;20098;-78
2021/01/20 08:37:32;;;;;;;1.75;1.40;;;9.90;99.90;;;;;;4739280;30;20059;-78
2021/01/20 08:39:59;;;;;;;3.30;1.27;;;10.00;99.90;;;;;;4715951;30;20033;-79
2021/01/20 08:42:30;;;;;;;1.70;1.02;;;10.20;99.90;;;;;;4731650;30;20029;-78
2021/01/20 08:45:16;;;;;;;1.35;1.02;;;10.30;99.90;;;;;;4731990;30;20437;-79
2021/01/20 08:47:55;;;;;;;3.20;1.02;;;10.30;99.90;;;;;;4731401;30;20044;-78
2021/01/20 08:50:27;;;;;;;2.70;0.93;;;10.40;99.90;;;;;;4731390;30;20063;-78
2021/01/20 08:52:54;;;;;;;1.58;1.05;;;10.50;99.90;;;;;;4730232;30;20033;-78
2021/01/20 08:55:25;;;;;;;1.52;0.80;;;10.60;99.90;;;;;;4733775;30;20093;-78
2021/01/20 08:58:23;;;;;;;5.88;1.55;;;10.70;99.90;;;;;;4738245;30;20037;-79
2021/01/20 09:00:56;;;;;;;2.65;0.80;;;10.80;99.90;;;;;;4731307;30;20411;-79
2021/01/20 09:03:24;;;;;;;1.73;1.20;;;11.00;99.90;;;;;;4730252;30;20041;-79
2021/01/20 09:05:52;;;;;;;3.72;1.13;;;11.00;99.90;;;;;;4736044;30;20021;-79
2021/01/20 09:08:19;;;;;;;2.95;1.25;;;11.20;99.90;;;;;;4738586;30;20061;-78
2021/01/20 09:10:46;;;;;;;2.00;1.00;;;11.20;99.90;;;;;;4730299;30;20041;-79
2021/01/20 09:13:14;;;;;;;2.28;1.20;;;11.30;99.90;;;;;;4730262;30;20406;-78
2021/01/20 09:15:40;;;;;;;1.83;1.00;;;11.40;99.90;;;;;;4732519;30;20040;-78
2021/01/20 09:18:06;;;;;;;1.63;0.95;;;11.50;99.90;;;;;;4742143;30;20032;-79
2021/01/20 09:20:34;;;;;;;1.83;0.80;;;11.70;99.90;;;;;;4730106;30;20466;-79
2021/01/20 09:23:01;;;;;;;1.77;1.05;;;11.70;99.90;;;;;;4730089;30;20119;-79
2021/01/20 09:25:27;;;;;;;2.08;0.95;;;11.80;99.90;;;;;;4731374;30;20036;-79
2021/01/20 09:27:53;;;;;;;2.13;1.15;;;11.80;99.90;;;;;;4743556;30;20089;-79
2021/01/20 09:30:19;;;;;;;4.63;1.35;;;11.90;99.90;;;;;;4731120;30;20045;-78
2021/01/20 09:32:45;;;;;;;1.27;0.90;;;12.10;99.90;;;;;;4730972;30;20032;-78
2021/01/20 09:35:13;;;;;;;1.70;1.00;;;12.10;99.90;;;;;;4730921;30;20453;-79
2021/01/20 09:37:40;;;;;;;2.72;0.88;;;12.20;99.90;;;;;;4740141;30;20084;-79
2021/01/20 09:40:09;;;;;;;2.40;1.10;;;12.20;99.90;;;;;;4748581;30;20033;-78
2021/01/20 09:42:37;;;;;;;2.05;1.10;;;12.30;99.90;;;;;;4748913;30;20569;-79
2021/01/20 09:45:05;;;;;;;5.50;1.40;;;12.50;99.90;;;;;;4747168;30;20093;-78
2021/01/20 09:47:31;;;;;;;1.15;0.80;;;12.60;99.90;;;;;;4726493;30;20033;-79
2021/01/20 09:49:57;;;;;;;0.98;0.68;;;12.70;99.90;;;;;;4748578;30;20520;-78
2021/01/20 09:52:26;;;;;;;1.60;1.00;;;12.90;99.90;;;;;;4748617;30;20033;-79
2021/01/20 09:54:53;;;;;;;3.60;1.00;;;13.00;99.90;;;;;;4748637;30;20072;-78
2021/01/20 09:57:23;;;;;;;2.30;0.88;;;13.20;99.90;;;;;;4736659;30;20385;-78
2021/01/20 09:59:51;;;;;;;1.42;0.80;;;13.40;99.20;;;;;;4749911;30;20048;-79
2021/01/20 10:02:18;;;;;;;0.85;0.60;;;13.50;99.40;;;;;;4751672;30;20024;-80
2021/01/20 10:04:45;;;;;;;2.25;0.90;;;13.50;98.80;;;;;;4750666;30;20051;-79
2021/01/20 10:07:12;;;;;;;1.10;0.60;;;13.70;98.40;;;;;;4740210;30;20049;-79
2021/01/20 10:09:39;;;;;;;1.23;0.40;;;13.60;97.70;;;;;;4751268;30;20032;-79
2021/01/20 10:12:07;;;;;;;1.08;0.80;;;13.90;97.60;;;;;;4737897;30;20044;-78
2021/01/20 10:14:33;;;;;;;1.30;0.50;;;14.10;97.30;;;;;;4717981;30;20100;-78
2021/01/20 10:16:59;;;;;;;1.65;0.50;;;14.40;97.20;;;;;;4732476;30;20028;-79
2021/01/20 10:19:25;;;;;;;3.72;0.98;;;14.60;96.80;;;;;;4732623;30;20045;-79
2021/01/20 10:21:51;;;;;;;4.50;0.75;;;14.70;96.20;;;;;;4742512;30;20055;-79
2021/01/20 10:24:18;;;;;;;0.70;0.60;;;14.90;96.20;;;;;;4750238;30;20068;-79
2021/01/20 10:26:44;;;;;;;1.17;0.90;;;15.00;95.30;;;;;;4748731;30;20051;-79
2021/01/20 10:29:10;;;;;;;0.77;0.60;;;15.20;95.10;;;;;;4733643;30;20415;-79
2021/01/20 10:31:39;;;;;;;2.10;1.15;;;15.30;95.00;;;;;;4738031;30;20040;-79
2021/01/20 10:34:06;;;;;;;0.77;0.70;;;15.20;94.90;;;;;;4751318;30;20036;-80
2021/01/20 10:36:33;;;;;;;1.05;0.60;;;15.40;95.00;;;;;;4751367;30;20047;-79
2021/01/20 10:38:59;;;;;;;1.30;0.60;;;15.40;94.60;;;;;;4733634;30;20122;-79
2021/01/20 10:41:26;;;;;;;1.25;1.10;;;15.40;94.50;;;;;;4734055;30;20128;-78
2021/01/20 10:43:53;;;;;;;1.35;0.68;;;15.60;94.10;;;;;;4749596;30;20040;-79
2021/01/20 10:46:27;;;;;;;2.58;0.57;;;15.40;94.00;;;;;;4750997;30;20028;-79
2021/01/20 10:48:54;;;;;;;1.48;1.10;;;15.20;94.00;;;;;;4736527;30;20494;-79
2021/01/20 10:51:21;;;;;;;2.40;0.90;;;14.80;94.00;;;;;;4732106;30;20044;-79
2021/01/20 10:53:48;;;;;;;1.40;0.65;;;14.50;94.50;;;;;;4748392;30;20144;-79
2021/01/20 10:56:14;;;;;;;2.25;0.80;;;14.10;94.70;;;;;;4750872;30;20105;-78
2021/01/20 10:58:40;;;;;;;2.28;0.75;;;13.90;95.20;;;;;;4741594;30;20036;-79
2021/01/20 11:01:07;;;;;;;0.70;0.60;;;13.70;95.50;;;;;;4733310;30;20177;-79
2021/01/20 11:03:33;;;;;;;3.05;0.80;;;13.60;96.10;;;;;;4743733;30;20113;-79
2021/01/20 11:05:59;;;;;;;2.20;0.93;;;13.50;96.30;;;;;;4739493;30;20041;-78
2021/01/20 11:08:25;;;;;;;2.13;0.52;;;13.60;96.40;;;;;;4731737;30;20049;-78
2021/01/20 11:10:51;;;;;;;1.75;0.80;;;13.60;96.40;;;;;;4732116;30;20503;-78
2021/01/20 11:13:17;;;;;;;0.75;0.70;;;13.60;96.30;;;;;;4732366;30;20098;-78
2021/01/20 11:15:48;;;;;;;0.85;0.60;;;13.60;96.40;;;;;;4732749;30;20034;-79
2021/01/20 11:18:18;;;;;;;1.98;1.58;;;13.50;96.70;;;;;;4732500;30;20491;-79
2021/01/20 11:20:46;;;;;;;5.32;0.80;;;13.50;96.90;;;;;;4732653;30;20033;-78
2021/01/20 11:23:13;;;;;;;1.30;0.85;;;13.60;97.50;;;;;;4736332;30;20072;-78
2021/01/20 11:25:57;;;;;;;9.15;1.30;;;13.50;96.60;;;;;;4747379;30;20056;-79
2021/01/20 11:28:23;;;;;;;0.70;0.70;;;13.50;96.60;;;;;;4732427;30;20516;-79
2021/01/20 11:30:50;;;;;;;2.75;0.70;;;13.50;96.80;;;;;;4732410;30;20033;-78
2021/01/20 11:33:17;;;;;;;1.95;0.68;;;13.40;97.00;;;;;;4718272;30;20036;-78
2021/01/20 11:35:43;;;;;;;0.82;0.50;;;13.40;97.30;;;;;;4731333;30;20066;-78
2021/01/20 11:38:09;;;;;;;1.48;0.52;;;13.40;97.70;;;;;;4733017;30;20032;-78
2021/01/20 11:40:35;;;;;;;1.10;0.57;;;13.50;97.90;;;;;;4732306;30;20119;-78
2021/01/20 11:43:02;;;;;;;5.97;2.05;;;13.50;97.90;;;;;;4731238;30;20029;-79
2021/01/20 11:45:32;;;;;;;1.73;1.00;;;13.40;97.90;;;;;;4733734;30;20391;-78
2021/01/20 11:47:59;;;;;;;2.83;1.02;;;13.40;98.20;;;;;;4731336;30;20106;-79
2021/01/20 11:50:25;;;;;;;1.30;0.65;;;13.40;98.10;;;;;;4732486;30;20429;-78
2021/01/20 11:52:52;;;;;;;1.00;0.75;;;13.40;98.40;;;;;;4733613;30;20036;-79
2021/01/20 11:55:19;;;;;;;2.53;0.75;;;13.30;98.50;;;;;;4733165;30;20499;-79
2021/01/20 11:57:45;;;;;;;1.52;0.80;;;13.40;98.50;;;;;;4732147;30;20083;-79
2021/01/20 12:00:13;;;;;;;1.65;0.60;;;13.30;98.80;;;;;;4731016;30;20380;-79
2021/01/20 12:02:40;;;;;;;3.10;1.25;;;13.30;99.00;;;;;;4732751;30;20584;-79
2021/01/20 12:05:08;;;;;;;1.77;0.70;;;13.30;98.80;;;;;;4734095;30;20503;-79
2021/01/20 12:07:43;;;;;;;1.20;0.80;;;13.40;98.50;;;;;;4730696;30;20414;-79
2021/01/20 12:10:10;;;;;;;4.05;1.10;;;13.40;98.50;;;;;;4732173;30;20479;-79
2021/01/20 12:12:37;;;;;;;1.90;0.77;;;13.40;98.80;;;;;;4732133;30;20036;-79
2021/01/20 12:15:04;;;;;;;1.83;0.98;;;13.30;98.70;;;;;;4732741;30;20119;-78
2021/01/20 12:17:31;;;;;;;2.17;0.90;;;13.30;98.80;;;;;;4730876;30;20116;-79
2021/01/20 12:19:57;;;;;;;1.85;0.90;;;13.40;98.90;;;;;;4732252;30;20043;-79
2021/01/20 12:22:24;;;;;;;3.15;1.65;;;13.40;99.00;;;;;;4731487;30;20116;-79
2021/01/20 12:24:50;;;;;;;5.03;1.88;;;13.40;99.10;;;;;;4731262;30;20036;-79
2021/01/20 12:27:16;;;;;;;5.90;2.28;;;13.50;98.90;;;;;;4733577;30;20028;-78
2021/01/20 12:29:42;;;;;;;3.95;2.10;;;13.60;99.00;;;;;;4731428;30;20407;-79
2021/01/20 12:32:08;;;;;;;4.05;1.30;;;13.70;99.10;;;;;;4732010;30;20553;-78
2021/01/20 12:34:34;;;;;;;2.08;1.27;;;13.80;98.50;;;;;;4731862;30;20384;-79
2021/01/20 12:37:00;;;;;;;2.20;1.02;;;13.80;98.40;;;;;;4734727;30;20089;-79
2021/01/20 12:39:26;;;;;;;1.02;0.93;;;13.80;97.80;;;;;;4731547;30;20032;-79
2021/01/20 12:41:52;;;;;;;2.92;1.05;;;13.80;97.80;;;;;;4730487;30;20065;-78
2021/01/20 12:44:18;;;;;;;3.35;1.40;;;14.00;97.90;;;;;;4730236;30;20403;-78
2021/01/20 12:46:44;;;;;;;2.78;0.95;;;14.20;97.40;;;;;;4733550;30;20033;-79
2021/01/20 12:49:11;;;;;;;3.17;0.95;;;14.20;95.80;;;;;;4731680;30;20044;-78
2021/01/20 12:51:37;;;;;;;1.02;0.77;;;14.40;94.80;;;;;;4731611;30;20041;-79
2021/01/20 12:54:04;;;;;;;1.58;0.80;;;14.40;94.50;;;;;;4731536;30;20029;-79
2021/01/20 12:56:30;;;;;;;2.47;0.73;;;14.30;94.30;;;;;;4733371;30;20036;-79
2021/01/20 12:58:57;;;;;;;1.83;0.70;;;14.20;93.90;;;;;;4731481;30;20029;-79
2021/01/20 13:01:23;;;;;;;0.60;0.55;;;14.30;94.00;;;;;;4731895;30;20028;-79
2021/01/20 13:03:49;;;;;;;3.55;0.82;;;14.10;95.00;;;;;;4731557;30;20040;-79
2021/01/20 13:06:15;;;;;;;1.05;0.70;;;13.90;95.50;;;;;;4731317;30;20033;-78
2021/01/20 13:08:42;;;;;;;1.55;0.80;;;13.80;95.60;;;;;;4732405;30;20052;-79
2021/01/20 13:11:08;;;;;;;3.28;0.70;;;13.90;95.70;;;;;;4731762;30;20124;-79